Terminal Aerodrome Forecast
Issued by NWS

Home | Current Version | Previous Version | Text Only | Print | Product List | Glossary On
Versions: 1 2 3 4 5 6 7 8 9 10 11 12 13 14 15 16 17 18 19 20 21 22 23 24 25 26 27 28 29 30 31 32 33 34 35 36 37 38 39 40 41 42 43 44 45 46
000
FTUS43 KDTX 290217 AAA
TAFYIP
TAF AMD
KYIP 290217Z 2902/2924 16006KT P6SM SCT060 OVC100
     FM290600 18009KT 5SM -SN BKN035 OVC050
      TEMPO 2907/2910 2SM -SN BKN028 OVC040
     FM291100 19011KT P6SM BKN100
     FM291800 20012G19KT P6SM BKN028 OVC040=

USA.gov is the U.S. government's official web portal to all federal, state and local government web resources and services.